Main page
METAR-TAF:

METAR-TAF

Airports :

Sylt Airport

Westerland, Germany

latitude: 54-55N, longitude: 008-21E, elevation: 16 m

Current weather observation

The report was made 34 minutes ago, at 04:50 UTC
Wind 7 kt from the West/Northwest
Temperature 13°C
Humidity 72%
Pressure 1022 hPa
Visibility 10 km or more

METAR: EDXW 200450Z AUTO 29007KT 9999 // FEW022/// 13/08 Q1022

Time: 07:24 (05:24 UTC)

Forecast

The report was made 12 hours and 24 minutes ago, at 17:00 UTC
Forecast valid from 19 at 18 UTC to 19 at 21 UTC
Wind 15 kt from the Northwest
Visibility 10 km or more
Scattered clouds at a height of 2000 ft
Probability 30% :
Temporary
from 19 at 18 UTC to 19 at 21 UTC
Wind 15 kt from the Northwest with gusts up to 25 kt

TAF: EDXW 191700Z 1918/1921 31015KT 9999 SCT020 PROB30 TEMPO 1918/1921 31015G25KT

Weather observations and forecasts of more than 4000 airports (METAR and TAF reports).

The available stations are represented by yellow and red dots on the map.

Hover mouse over dot to see the name of the station.

Then click to see weather observations and forecasts.

To change the map : click on the green buttons with a black cross to zoom in, on the green button with a dash to zoom out, or on the green arrows for adjacent maps.


METAR-TAF: